Pagina principale
METAR-TAF:

METAR-TAF

Aeroporti :

Pyongyang, Corea del Nord

Aeroporto di Pyongyang-Sunan

latitudine: 39-02N, longitudine: 125-47E, altezza: 36 m

METAR: mancante

Ora: 10:05 (01:35 UTC)

Previsione

Il bollettino è stato emesso 3 ore e 45 minuti fa, alle 21:50 UTC
Previsione valida dal 25 alle 00 UTC al 25 alle 24 UTC
Vento 6 kt da nord
Visibilità 10 km o più
nessuna nube inferiore a 1500 m e nessun cumulonembo
Evoluzione graduale
dal 25 alle 02 UTC al 25 alle 04 UTC
Vento 12 kt da ovest

TAF: ZKPY 242150Z 2500/2524 36003MPS CAVOK TX03/2506Z TNM06/2522Z BECMG 2502/2504 28006MPS

Osservazioni e previsioni meteorologiche di più di 4000 aeroporti (messaggi METAR e TAF).

Le stazioni disponibili sono rappresentate dai dischi gialli e rossi sulla carta.

Puntare il mouse per vedere il nome della stazione.

Clicca sopra per visualizzare le osservazioni e previsioni meteorologiche.

Per cambiare la mappa : fare clic sui pulsanti verdi con una croce nera per ingrandire, il pulsante verde con un trattino per diminuire, o sulla freccia verde per le mappe adiacenti.


METAR-TAF: